createdAt,value
2022-11-21T00:01:16.977Z,-0.95
2022-11-21T00:03:46.647Z,-0.90
2022-11-21T00:06:14.656Z,-0.97
2022-11-21T00:08:42.660Z,-1.51
2022-11-21T00:11:10.580Z,-1.40
2022-11-21T00:13:38.492Z,-1.38
2022-11-21T00:16:07.114Z,-1.48
2022-11-21T00:18:35.717Z,-1.58
2022-11-21T00:21:08.914Z,-1.51
2022-11-21T00:23:36.936Z,-1.39
2022-11-21T00:26:06.321Z,-1.31
2022-11-21T00:28:34.326Z,-1.32
2022-11-21T00:31:02.306Z,-1.40
2022-11-21T00:33:30.193Z,-1.37
2022-11-21T00:35:58.145Z,-1.21
2022-11-21T00:38:28.521Z,-1.20
2022-11-21T00:40:56.392Z,-1.28
2022-11-21T00:43:24.329Z,-1.18
2022-11-21T00:45:52.188Z,-0.92
2022-11-21T00:48:20.076Z,-0.82
2022-11-21T00:50:50.108Z,-0.92
2022-11-21T00:53:18.069Z,-0.98
2022-11-21T00:55:47.305Z,-0.80
2022-11-21T00:58:15.179Z,-0.96
2022-11-21T01:00:43.175Z,-1.09
2022-11-21T01:03:11.120Z,-1.10
2022-11-21T01:05:39.017Z,-0.95
2022-11-21T01:08:07.271Z,-0.81
2022-11-21T01:10:35.901Z,-0.80
2022-11-21T01:13:05.183Z,-0.90
2022-11-21T01:15:33.111Z,-0.93
2022-11-21T01:18:00.990Z,-0.92
2022-11-21T01:20:28.899Z,-0.80
2022-11-21T01:22:56.828Z,-0.81
2022-11-21T01:25:24.749Z,-0.97
2022-11-21T01:27:52.633Z,-0.98
2022-11-21T01:30:21.917Z,-0.88
2022-11-21T01:32:50.690Z,-0.91
2022-11-21T01:35:18.855Z,-0.82
2022-11-21T01:37:48.249Z,-0.95
2022-11-21T01:40:16.346Z,-0.93
2022-11-21T01:43:00.605Z,-0.83
2022-11-21T01:45:58.164Z,-0.75
2022-11-21T01:48:31.692Z,-0.98
2022-11-21T01:51:04.038Z,-1.06
2022-11-21T01:53:31.965Z,-1.10
2022-11-21T01:55:59.968Z,-1.01
2022-11-21T01:58:27.999Z,-0.91
2022-11-21T02:00:57.480Z,-0.94
2022-11-21T02:03:28.612Z,-0.84
2022-11-21T02:05:56.751Z,-1.26
2022-11-21T02:08:25.448Z,-1.24
2022-11-21T02:11:05.339Z,-1.20
2022-11-21T02:13:33.324Z,-1.00
2022-11-21T02:16:03.653Z,-0.87
2022-11-21T02:18:31.572Z,-0.81
2022-11-21T02:21:03.424Z,-1.06
2022-11-21T02:23:35.041Z,-1.20
2022-11-21T02:26:04.384Z,-1.25
2022-11-21T02:28:32.666Z,-1.33
2022-11-21T02:31:00.564Z,-1.04
2022-11-21T02:33:28.517Z,-1.18
2022-11-21T02:36:00.252Z,-1.37
2022-11-21T02:38:30.784Z,-1.34
2022-11-21T02:41:05.711Z,-1.16
2022-11-21T02:43:38.760Z,-1.18
2022-11-21T02:46:06.690Z,-1.13
2022-11-21T02:48:34.920Z,-0.99
2022-11-21T02:51:02.820Z,-1.14
2022-11-21T02:53:30.781Z,-1.25
2022-11-21T02:55:58.839Z,-1.03
2022-11-21T02:58:28.194Z,-1.11
2022-11-21T03:00:56.300Z,-1.51
2022-11-21T03:03:24.300Z,-1.38
2022-11-21T03:05:52.306Z,-1.16
2022-11-21T03:08:20.227Z,-1.48
2022-11-21T03:10:48.100Z,-1.52
2022-11-21T03:13:15.978Z,-1.69
2022-11-21T03:15:45.264Z,-1.66
2022-11-21T03:18:13.153Z,-1.56
2022-11-21T03:20:41.104Z,-1.33
2022-11-21T03:23:09.024Z,-1.28
2022-11-21T03:25:37.205Z,-1.33
2022-11-21T03:28:05.425Z,-1.34
2022-11-21T03:30:33.318Z,-1.30
2022-11-21T03:33:02.589Z,-1.23
2022-11-21T03:35:30.487Z,-1.12
2022-11-21T03:37:58.396Z,-1.17
2022-11-21T03:40:26.268Z,-0.95
2022-11-21T03:42:54.201Z,-1.07
2022-11-21T03:45:22.087Z,-1.18
2022-11-21T03:47:49.973Z,-1.56
2022-11-21T03:50:21.047Z,-1.78
2022-11-21T03:52:48.973Z,-1.61
2022-11-21T03:55:17.004Z,-1.42
2022-11-21T03:57:44.912Z,-1.29
2022-11-21T04:00:14.436Z,-1.39
2022-11-21T04:02:42.445Z,-1.32
2022-11-21T04:05:10.877Z,-1.47
2022-11-21T04:07:40.229Z,-1.40
2022-11-21T04:10:08.839Z,-1.59
2022-11-21T04:12:36.828Z,-1.69
2022-11-21T04:15:09.312Z,-1.70
2022-11-21T04:17:40.144Z,-1.65
2022-11-21T04:20:09.007Z,-1.76
2022-11-21T04:22:36.900Z,-1.98
2022-11-21T04:25:07.128Z,-2.10
2022-11-21T04:27:34.997Z,-2.04
2022-11-21T04:30:02.897Z,-1.55
2022-11-21T04:32:30.756Z,-1.40
2022-11-21T04:34:58.700Z,-1.70
2022-11-21T04:37:26.710Z,-1.86
2022-11-21T04:39:54.572Z,-1.79
2022-11-21T04:42:23.952Z,-1.38
2022-11-21T04:44:51.851Z,-1.57
2022-11-21T04:47:19.799Z,-1.59
2022-11-21T04:49:47.672Z,-1.79
2022-11-21T04:52:15.552Z,-1.79
2022-11-21T04:54:43.482Z,-1.72
2022-11-21T04:57:11.452Z,-1.55
2022-11-21T04:59:40.769Z,-1.53
2022-11-21T05:02:08.649Z,-1.49
2022-11-21T05:04:36.541Z,-1.45
2022-11-21T05:07:04.504Z,-1.97
2022-11-21T05:09:32.532Z,-2.41
2022-11-21T05:12:18.088Z,-2.05
2022-11-21T05:14:47.385Z,-2.19
2022-11-21T05:17:15.305Z,-1.79
2022-11-21T05:19:43.207Z,-1.54
2022-11-21T05:22:11.171Z,-1.58
2022-11-21T05:24:39.365Z,-1.85
2022-11-21T05:27:07.260Z,-1.86
2022-11-21T05:29:36.029Z,-1.88
2022-11-21T05:32:05.545Z,-1.88
2022-11-21T05:34:33.452Z,-2.37
2022-11-21T05:37:01.315Z,-2.29
2022-11-21T05:39:29.263Z,-2.36
2022-11-21T05:42:02.521Z,-2.63
2022-11-21T05:44:30.360Z,-2.74
2022-11-21T05:46:58.511Z,-2.73
2022-11-21T05:49:27.811Z,-2.83
2022-11-21T05:51:55.710Z,-2.60
2022-11-21T05:54:23.630Z,-2.24
2022-11-21T05:56:51.516Z,-2.29
2022-11-21T05:59:19.398Z,-2.90
2022-11-21T06:02:04.839Z,-2.61
2022-11-21T06:04:34.088Z,-2.29
2022-11-21T06:07:02.104Z,-2.70
2022-11-21T06:09:30.038Z,-2.72
2022-11-21T06:11:57.896Z,-3.05
2022-11-21T06:14:25.973Z,-3.15
2022-11-21T06:16:54.035Z,-3.09
2022-11-21T06:19:21.939Z,-3.39
2022-11-21T06:21:51.260Z,-3.38
2022-11-21T06:24:22.130Z,-3.22
2022-11-21T06:26:50.386Z,-3.37
2022-11-21T06:29:18.325Z,-2.82
2022-11-21T06:31:46.568Z,-2.90
2022-11-21T06:34:14.537Z,-3.14
2022-11-21T06:36:42.443Z,-2.58
2022-11-21T06:39:11.740Z,-2.64
2022-11-21T06:41:39.608Z,-2.50
2022-11-21T06:44:07.564Z,-2.17
2022-11-21T06:46:35.459Z,-2.02
2022-11-21T06:49:03.549Z,-2.10
2022-11-21T06:51:31.476Z,-2.41
2022-11-21T06:54:00.160Z,-2.24
2022-11-21T06:56:30.881Z,-2.42
2022-11-21T06:58:59.206Z,-2.78
2022-11-21T07:01:27.539Z,-2.44
2022-11-21T07:03:55.733Z,-2.28
2022-11-21T07:06:24.027Z,-2.11
2022-11-21T07:09:17.542Z,-2.19
2022-11-21T07:11:44.067Z,-2.26
2022-11-21T07:14:10.995Z,-2.26
2022-11-21T07:16:39.281Z,-2.63
2022-11-21T07:19:07.217Z,-2.65
2022-11-21T07:21:35.135Z,-2.57
2022-11-21T07:24:03.055Z,-2.75
2022-11-21T07:26:30.952Z,-2.56
2022-11-21T07:29:01.234Z,-2.79
2022-11-21T07:31:29.130Z,-2.88
2022-11-21T07:33:57.013Z,-2.79
2022-11-21T07:36:24.946Z,-2.69
2022-11-21T07:38:52.838Z,-2.49
2022-11-21T07:41:20.909Z,-2.21
2022-11-21T07:43:48.811Z,-2.41
2022-11-21T07:46:18.111Z,-2.57
2022-11-21T07:48:46.025Z,-2.54
2022-11-21T07:51:13.959Z,-2.46
2022-11-21T07:53:41.855Z,-2.57
2022-11-21T07:56:10.544Z,-2.51
2022-11-21T07:58:38.720Z,-2.41
2022-11-21T08:01:07.616Z,-2.38
2022-11-21T08:03:36.880Z,-2.25
2022-11-21T08:06:05.645Z,-1.95
2022-11-21T08:08:33.513Z,-1.82
2022-11-21T08:11:05.479Z,-2.02
2022-11-21T08:13:33.495Z,-1.94
2022-11-21T08:16:03.735Z,-1.77
2022-11-21T08:18:31.802Z,-1.54
2022-11-21T08:21:03.585Z,-1.75
2022-11-21T08:23:31.695Z,-1.73
2022-11-21T08:25:59.636Z,-1.62
2022-11-21T08:28:27.538Z,-1.51
2022-11-21T08:30:55.703Z,-1.53
2022-11-21T08:33:23.611Z,-1.95
2022-11-21T08:35:51.524Z,-1.68
2022-11-21T08:38:20.801Z,-2.01
2022-11-21T08:41:12.147Z,-2.01
2022-11-21T08:43:42.632Z,-1.68
2022-11-21T08:46:13.395Z,-1.71
2022-11-21T08:48:41.301Z,-1.55
2022-11-21T08:51:10.719Z,-1.57
2022-11-21T08:53:40.196Z,-1.46
2022-11-21T08:56:08.122Z,-1.53
2022-11-21T08:58:36.012Z,-1.62
2022-11-21T09:01:03.934Z,-1.51
2022-11-21T09:03:32.220Z,-1.51
2022-11-21T09:06:00.508Z,-1.61
2022-11-21T09:08:28.387Z,-1.54
2022-11-21T09:10:58.992Z,-1.41
2022-11-21T09:13:27.084Z,-1.59
2022-11-21T09:16:15.215Z,-1.70
2022-11-21T09:18:47.198Z,-1.65
2022-11-21T09:21:16.061Z,-1.73
2022-11-21T09:23:44.054Z,-1.77
2022-11-21T09:26:13.480Z,-1.62
2022-11-21T09:28:42.121Z,-1.48
2022-11-21T09:31:10.008Z,-1.30
2022-11-21T09:33:38.060Z,-1.30
2022-11-21T09:36:06.585Z,-1.06
2022-11-21T09:38:34.510Z,-0.95
2022-11-21T09:41:34.444Z,-0.81
2022-11-21T09:44:10.283Z,-0.61
2022-11-21T09:46:42.806Z,-0.73
2022-11-21T09:49:13.696Z,-0.57
2022-11-21T09:51:43.062Z,-0.60
2022-11-21T09:54:16.510Z,-0.67
2022-11-21T09:56:44.878Z,-0.60
2022-11-21T09:59:28.905Z,-0.54
2022-11-21T10:01:57.440Z,-0.52
2022-11-21T10:04:25.776Z,-0.40
2022-11-21T10:06:59.796Z,-0.43
2022-11-21T10:09:36.866Z,-0.09
2022-11-21T10:12:27.525Z,0.04
2022-11-21T10:15:03.928Z,-0.08
2022-11-21T10:17:40.117Z,-0.04
2022-11-21T10:20:32.198Z,-0.06
2022-11-21T10:23:17.594Z,0.24
2022-11-21T10:25:49.765Z,0.23
2022-11-21T10:28:23.276Z,0.45
2022-11-21T10:30:53.061Z,0.64
2022-11-21T10:33:26.444Z,0.54
2022-11-21T10:35:56.768Z,0.67
2022-11-21T10:38:26.977Z,0.50
2022-11-21T10:41:02.472Z,0.90
2022-11-21T10:43:54.939Z,1.01
2022-11-21T10:46:24.362Z,0.92
2022-11-21T10:48:57.475Z,1.09
2022-11-21T10:51:41.044Z,1.01
2022-11-21T10:54:28.022Z,1.15
2022-11-21T10:56:58.114Z,1.03
2022-11-21T10:59:30.935Z,1.04
2022-11-21T11:02:01.522Z,1.21
2022-11-21T11:04:35.396Z,1.16
2022-11-21T11:07:23.642Z,1.12
2022-11-21T11:09:52.599Z,1.18
2022-11-21T11:12:44.426Z,1.51
2022-11-21T11:15:18.598Z,1.20
2022-11-21T11:17:51.295Z,1.48
2022-11-21T11:20:32.554Z,1.74
2022-11-21T11:23:00.702Z,1.56
2022-11-21T11:25:28.578Z,1.27
2022-11-21T11:27:57.125Z,1.28
2022-11-21T11:30:25.032Z,1.58
2022-11-21T11:32:54.301Z,1.65
2022-11-21T11:35:24.199Z,1.25
2022-11-21T11:38:01.018Z,1.56
2022-11-21T11:40:32.659Z,1.21
2022-11-21T11:43:28.973Z,0.94
2022-11-21T11:46:39.784Z,0.66
2022-11-21T11:49:20.320Z,1.14
2022-11-21T11:51:52.815Z,1.44
2022-11-21T11:54:23.704Z,1.39
2022-11-21T11:56:51.948Z,1.31
2022-11-21T11:59:22.605Z,0.84
2022-11-21T12:01:55.312Z,0.77
2022-11-21T12:04:26.020Z,0.78
2022-11-21T12:09:52.258Z,1.03
2022-11-21T12:12:27.369Z,1.16
2022-11-21T12:15:18.133Z,1.25
2022-11-21T12:17:55.644Z,1.97
2022-11-21T12:20:28.911Z,2.17
2022-11-21T12:22:57.032Z,2.29
2022-11-21T12:25:35.488Z,2.19
2022-11-21T12:28:06.169Z,2.11
2022-11-21T12:30:52.181Z,2.14
2022-11-21T12:33:22.447Z,2.13
2022-11-21T12:36:18.356Z,2.06
2022-11-21T12:38:58.944Z,2.17
2022-11-21T12:41:50.459Z,2.20
2022-11-21T12:44:33.206Z,2.28
2022-11-21T12:47:10.865Z,2.30
2022-11-21T12:50:10.058Z,2.36
2022-11-21T12:53:07.547Z,2.37
2022-11-21T12:55:37.689Z,2.26
2022-11-21T12:58:22.472Z,2.23
2022-11-21T13:01:02.635Z,1.93
2022-11-21T13:03:40.728Z,1.88
2022-11-21T13:06:15.439Z,1.62
2022-11-21T13:08:45.912Z,1.67
2022-11-21T13:11:39.995Z,1.68
2022-11-21T13:14:13.400Z,1.58
2022-11-21T13:16:48.113Z,1.55
2022-11-21T13:19:21.821Z,1.73
2022-11-21T13:21:51.096Z,1.75
2022-11-21T13:24:52.473Z,1.55
2022-11-21T13:27:36.741Z,1.63
2022-11-21T13:30:25.965Z,1.81
2022-11-21T13:32:55.010Z,1.93
2022-11-21T13:36:05.593Z,1.92
2022-11-21T13:38:36.733Z,1.77
2022-11-21T13:41:22.025Z,1.88
2022-11-21T13:43:51.360Z,1.86
2022-11-21T13:46:52.233Z,1.82
2022-11-21T13:49:22.583Z,1.70
2022-11-21T13:51:55.841Z,1.66
2022-11-21T13:54:49.225Z,1.66
2022-11-21T13:57:26.505Z,1.67
2022-11-21T14:00:24.901Z,1.72
2022-11-21T14:03:16.936Z,1.80
2022-11-21T14:06:31.281Z,1.71
2022-11-21T14:09:22.746Z,1.70
2022-11-21T14:11:52.351Z,1.69
2022-11-21T14:14:29.113Z,1.62
2022-11-21T14:17:21.445Z,1.64
2022-11-21T14:19:49.813Z,1.55
2022-11-21T14:22:30.468Z,1.52
2022-11-21T14:25:01.612Z,1.48
2022-11-21T14:27:31.682Z,1.42
2022-11-21T14:29:59.946Z,1.42
2022-11-21T14:32:29.761Z,1.43
2022-11-21T14:35:11.753Z,1.43
2022-11-21T14:37:43.420Z,1.42
2022-11-21T14:40:13.871Z,1.39
2022-11-21T14:42:41.740Z,1.41
2022-11-21T14:45:17.768Z,1.33
2022-11-21T14:47:50.972Z,1.43
2022-11-21T14:50:27.794Z,1.21
2022-11-21T14:52:59.010Z,1.40
2022-11-21T14:55:31.042Z,1.38
2022-11-21T14:58:00.746Z,1.31
2022-11-21T15:00:58.190Z,1.08
2022-11-21T15:03:23.227Z,1.05
2022-11-21T15:06:08.528Z,0.91
2022-11-21T15:11:28.379Z,1.03
2022-11-21T15:14:17.133Z,0.94
2022-11-21T15:16:47.343Z,0.92
2022-11-21T15:19:21.413Z,1.09
2022-11-21T15:21:50.255Z,0.91
2022-11-21T15:24:20.042Z,0.78
2022-11-21T15:26:48.210Z,0.68
2022-11-21T15:29:21.300Z,0.66
2022-11-21T15:32:07.329Z,0.63
2022-11-21T15:34:37.005Z,0.50
2022-11-21T15:37:08.555Z,0.45
2022-11-21T15:39:37.944Z,0.60
2022-11-21T15:42:36.276Z,0.36
2022-11-21T15:45:07.410Z,0.34
2022-11-21T15:47:35.301Z,0.47
2022-11-21T15:50:05.398Z,0.50
2022-11-21T15:52:33.341Z,0.53
2022-11-21T15:55:01.232Z,0.77
2022-11-21T15:57:29.098Z,0.58
2022-11-21T15:59:57.013Z,0.70
2022-11-21T16:02:24.908Z,0.65
2022-11-21T16:04:53.520Z,0.21
2022-11-21T16:07:22.853Z,0.25
2022-11-21T16:09:52.184Z,0.46
2022-11-21T16:12:20.088Z,0.64
2022-11-21T16:14:48.109Z,0.63
2022-11-21T16:17:15.996Z,0.35
2022-11-21T16:19:43.916Z,0.37
2022-11-21T16:22:11.784Z,0.20
2022-11-21T16:24:41.044Z,0.08
2022-11-21T16:27:09.008Z,0.16
2022-11-21T16:29:36.904Z,0.07
2022-11-21T16:32:04.952Z,0.31
2022-11-21T16:34:33.108Z,0.31
2022-11-21T16:37:06.945Z,0.07
2022-11-21T16:39:35.676Z,0.09
2022-11-21T16:42:05.546Z,-0.05
2022-11-21T16:44:33.493Z,-0.07
2022-11-21T16:47:07.842Z,0.10
2022-11-21T16:49:36.127Z,-0.04
2022-11-21T16:52:04.071Z,-0.17
2022-11-21T16:54:31.945Z,-0.18
2022-11-21T16:56:59.853Z,-0.23
2022-11-21T16:59:29.269Z,-0.36
2022-11-21T17:01:57.432Z,-0.43
2022-11-21T17:04:25.457Z,-0.44
2022-11-21T17:06:53.497Z,-0.49
2022-11-21T17:09:21.460Z,-0.52
2022-11-21T17:11:49.344Z,-0.49
2022-11-21T17:14:17.225Z,-0.57
2022-11-21T17:16:48.851Z,-0.65
2022-11-21T17:19:17.248Z,-0.58
2022-11-21T17:21:45.500Z,-0.73
2022-11-21T17:24:13.949Z,-0.62
2022-11-21T17:26:41.844Z,-0.54
2022-11-21T17:29:10.684Z,-0.59
2022-11-21T17:31:38.693Z,-0.23
2022-11-21T17:34:08.268Z,-0.27
2022-11-21T17:36:36.153Z,-0.43
2022-11-21T17:39:04.317Z,-0.39
2022-11-21T17:41:32.286Z,-0.52
2022-11-21T17:44:01.049Z,-0.68
2022-11-21T17:46:28.979Z,-0.93
2022-11-21T17:48:58.852Z,-1.00
2022-11-21T17:51:30.373Z,-1.02
2022-11-21T17:53:59.509Z,-0.80
2022-11-21T17:56:29.953Z,-0.57
2022-11-21T17:58:58.005Z,-1.03
2022-11-21T18:01:26.242Z,-1.16
2022-11-21T18:03:58.849Z,-0.66
2022-11-21T18:06:29.521Z,-1.07
2022-11-21T18:08:58.540Z,-0.81
2022-11-21T18:11:34.420Z,-0.97
2022-11-21T18:14:06.423Z,-0.96
2022-11-21T18:16:35.215Z,-0.85
2022-11-21T18:19:03.115Z,-0.91
2022-11-21T18:21:33.652Z,-0.28
2022-11-21T18:24:01.501Z,-0.88
2022-11-21T18:26:30.655Z,-0.41
2022-11-21T18:29:35.103Z,-0.40
2022-11-21T18:31:47.580Z,-0.74
2022-11-21T18:34:15.604Z,-0.80
2022-11-21T18:36:44.896Z,-0.62
2022-11-21T18:39:15.158Z,-0.54
2022-11-21T18:41:44.085Z,-1.05
2022-11-21T18:44:18.649Z,-0.35
2022-11-21T18:46:49.427Z,-0.79
2022-11-21T18:49:17.980Z,-0.99
2022-11-21T18:51:48.515Z,-0.37
2022-11-21T18:54:16.758Z,-0.25
2022-11-21T18:56:44.671Z,-0.11
2022-11-21T18:59:12.620Z,-0.28
2022-11-21T19:01:40.658Z,-0.16
2022-11-21T19:04:09.443Z,-0.08
2022-11-21T19:06:37.376Z,-0.26
2022-11-21T19:09:08.200Z,-0.36
2022-11-21T19:11:36.158Z,-0.23
2022-11-21T19:14:04.040Z,-0.09
2022-11-21T19:16:34.270Z,-0.17
2022-11-21T19:21:50.654Z,-0.17
2022-11-21T19:24:20.371Z,-0.39
2022-11-21T19:26:50.339Z,-0.33
2022-11-21T19:29:18.776Z,-0.35
2022-11-21T19:31:46.698Z,-0.22
2022-11-21T19:34:14.899Z,-0.23
2022-11-21T19:36:43.104Z,-0.35
2022-11-21T19:39:11.331Z,-0.35
2022-11-21T19:41:40.875Z,-0.27
2022-11-21T19:44:08.772Z,-0.14
2022-11-21T19:46:37.932Z,-0.21
2022-11-21T19:49:06.578Z,-0.24
2022-11-21T19:51:35.697Z,-0.40
2022-11-21T19:54:03.924Z,-0.46
2022-11-21T19:56:31.848Z,-0.68
2022-11-21T19:59:01.155Z,-0.58
2022-11-21T20:01:30.492Z,-0.44
2022-11-21T20:04:00.116Z,-0.35
2022-11-21T20:06:30.742Z,-0.52
2022-11-21T20:09:00.403Z,-0.79
2022-11-21T20:11:29.689Z,-0.59
2022-11-21T20:14:00.560Z,-0.80
2022-11-21T20:16:30.479Z,-0.98
2022-11-21T20:19:01.033Z,-1.32
2022-11-21T20:21:29.681Z,-1.04
2022-11-21T20:23:57.702Z,-1.31
2022-11-21T20:26:26.479Z,-1.24
2022-11-21T20:28:54.607Z,-0.85
2022-11-21T20:31:27.046Z,-0.89
2022-11-21T20:33:57.436Z,-0.75
2022-11-21T20:36:26.706Z,-0.63
2022-11-21T20:38:56.010Z,-0.69
2022-11-21T20:41:25.328Z,-0.50
2022-11-21T20:46:43.864Z,-0.53
2022-11-21T20:49:12.569Z,-0.41
2022-11-21T20:54:28.804Z,-0.42
2022-11-21T20:56:56.914Z,-0.48
2022-11-21T20:59:24.868Z,-0.55
2022-11-21T21:01:54.559Z,-0.64
2022-11-21T21:04:22.528Z,-0.54
2022-11-21T21:06:50.453Z,-0.58
2022-11-21T21:09:18.360Z,-0.59
2022-11-21T21:11:53.725Z,-0.56
2022-11-21T21:14:22.335Z,-0.62
2022-11-21T21:16:50.490Z,-0.43
2022-11-21T21:19:22.444Z,-0.70
2022-11-21T21:21:50.369Z,-0.53
2022-11-21T21:24:18.578Z,-0.88
2022-11-21T21:26:47.961Z,-1.02
2022-11-21T21:29:17.124Z,-0.69
2022-11-21T21:31:50.368Z,-0.67
2022-11-21T21:34:20.457Z,-0.56
2022-11-21T21:36:48.460Z,-0.58
2022-11-21T21:39:16.408Z,-0.44
2022-11-21T21:41:46.682Z,-0.49
2022-11-21T21:44:15.499Z,-0.56
2022-11-21T21:46:43.635Z,-0.47
2022-11-21T21:49:11.626Z,-0.48
2022-11-21T21:51:41.344Z,-0.45
2022-11-21T21:54:16.481Z,-0.41
2022-11-21T21:56:45.680Z,-0.38
2022-11-21T21:59:13.950Z,-0.50
2022-11-21T22:01:42.723Z,-0.53
2022-11-21T22:04:12.362Z,-0.73
2022-11-21T22:06:41.677Z,-0.65
2022-11-21T22:09:09.670Z,-0.91
2022-11-21T22:11:38.993Z,-0.79
2022-11-21T22:14:08.381Z,-1.02
2022-11-21T22:16:36.303Z,-0.84
2022-11-21T22:19:04.187Z,-0.79
2022-11-21T22:21:33.638Z,-0.42
2022-11-21T22:26:51.890Z,-0.30
2022-11-21T22:29:19.804Z,-0.40
2022-11-21T22:31:47.718Z,-0.30
2022-11-21T22:34:15.752Z,-0.24
2022-11-21T22:36:44.739Z,-0.10
2022-11-21T22:39:14.043Z,-0.25
2022-11-21T22:41:41.987Z,-0.25
2022-11-21T22:44:10.026Z,-0.18
2022-11-21T22:46:37.916Z,-0.25
2022-11-21T22:49:05.879Z,-0.23
2022-11-21T22:51:34.684Z,-0.31
2022-11-21T22:54:02.571Z,-0.13
2022-11-21T22:56:31.864Z,-0.14
2022-11-21T22:58:59.746Z,-0.10
2022-11-21T23:01:27.773Z,-0.11
2022-11-21T23:03:56.750Z,-0.08
2022-11-21T23:06:26.174Z,-0.07
2022-11-21T23:08:55.396Z,-0.19
2022-11-21T23:11:25.943Z,-0.27
2022-11-21T23:13:56.286Z,-0.21
2022-11-21T23:16:24.179Z,-0.10
2022-11-21T23:18:53.013Z,-0.20
2022-11-21T23:21:21.078Z,-0.18
2022-11-21T23:23:49.031Z,-0.10
2022-11-21T23:26:17.032Z,-0.05
2022-11-21T23:28:44.952Z,-0.10
2022-11-21T23:31:14.270Z,-0.13
2022-11-21T23:33:42.202Z,-0.08
2022-11-21T23:36:10.081Z,-0.17
2022-11-21T23:38:38.034Z,-0.27
2022-11-21T23:41:05.915Z,-0.45
2022-11-21T23:43:33.823Z,-0.28
2022-11-21T23:46:01.712Z,-0.34
2022-11-21T23:48:31.173Z,-0.34
2022-11-21T23:50:59.031Z,-0.33
2022-11-21T23:53:26.950Z,-0.37
2022-11-21T23:55:54.840Z,-0.43
2022-11-21T23:58:22.752Z,-0.33
